鳥取空港の過去48時間の天気

鳥取空港 (Tottori)

現在時刻: 9/17 00:10 JST (9/16 15:10 UTC) 以下の時間は現地時間です。

過去48時間のMETAR気象情報
時間 風向 風速(m/s) 視程 気温(℃) 湿度(%) 気圧(hPa) 天気現象
16 21:00 7 10km以上 25 78 1007 周辺でしゅう雨
16 20:00 6 10km以上 25 78 1007
16 19:00 6 10km以上 25 74 1007
16 18:00 7 10km以上 25 74 1006
16 17:00 7 10km以上 25 74 1006
16 16:00 7 10km以上 26 70 1006
16 15:00 8 10km以上 27 70 1005
16 14:00 7 10km以上 28 66 1006
16 13:00 8 10km以上 26 79 1006 周辺でしゅう雨
16 12:00 8 10km以上 25 83 1006 弱いしゅう雨
16 11:00 6 10km以上 25 83 1006 周辺でしゅう雨
16 10:00 7 10km以上 27 74 1007 周辺でしゅう雨
16 09:00 北北東 6 10km以上 27 74 1006
16 08:00 6 10km以上 26 79 1006
16 07:00 北北東 5 10km以上 25 78 1006
16 06:30 北北東 5 10km以上 25 83 1006
16 06:10 4 10km以上 24 83 1006
15 21:00 北北東 5 10km以上 26 79 1008
15 20:00 北北東 5 10km以上 26 84 1008
15 19:00 北北東 4 10km以上 26 84 1008
15 18:00 北東 4 10km以上 26 84 1007
15 17:00 北東 4 10km以上 26 84 1007
15 16:00 北北東 4 10km以上 28 79 1007
15 15:00 北北東 5 10km以上 28 70 1007
15 14:00 5 10km以上 28 70 1008
15 13:00 4 10km以上 29 74 1008
15 12:00 4 10km以上 28 79 1009
15 11:00 北北西 4 10km以上 28 74 1009
15 10:00 北北西 3 10km以上 28 70 1009
15 09:00 2 10km以上 26 74 1010
15 08:00 南東 2 10km以上 24 83 1010
15 07:00 南東 3 10km以上 23 83 1009
15 06:30 南東 3 10km以上 22 88 1009
RJOR 161200Z 36013KT 9999 VCSH FEW020 SCT040 BKN060 25/21 Q1007
RJOR 161100Z 36012KT 9999 FEW020 SCT060 25/21 Q1007
RJOR 161000Z 01011KT 9999 FEW020 SCT040 BKN060 25/20 Q1007
RJOR 160900Z 35014KT 9999 FEW020 BKN040 25/20 Q1006
RJOR 160800Z 35013KT 9999 FEW015 BKN030 25/20 Q1006
RJOR 160700Z 35014KT 9999 FEW010 SCT020 26/20 Q1006
RJOR 160600Z 36016KT 9999 FEW010 SCT020 BKN040 27/21 Q1005
RJOR 160500Z 36014KT 9999 FEW010 SCT020 BKN060 28/21 Q1006
RJOR 160400Z 35015KT 9999 VCSH FEW015 SCT020 BKN070 26/22 Q1006
RJOR 160300Z 01015KT 9999 -SHRA FEW015 SCT020 BKN035 25/22 Q1006
RJOR 160200Z 36011KT 9999 VCSH FEW010 SCT020 BKN040 25/22 Q1006
RJOR 160100Z 01013KT 9999 VCSH FEW010 SCT020 BKN060 27/22 Q1007
RJOR 160000Z 02012KT 9999 FEW015 SCT020 BKN060 27/22 Q1006
RJOR 152300Z 01012KT 9999 FEW015 SCT020 26/22 Q1006
RJOR 152200Z 03010KT 9999 FEW015 SCT020 25/21 Q1006
RJOR 152130Z 03009KT 9999 FEW015 BKN020 25/22 Q1006
RJOR 152110Z 01008KT 9999 FEW015 BKN020 24/21 Q1006 RMK 1CU015 5CU020 A2972
RJOR 151200Z 02009KT 9999 FEW020 SCT050 26/22 Q1008
RJOR 151100Z 02009KT 9999 FEW020 26/23 Q1008
RJOR 151000Z 03007KT 9999 FEW020 26/23 Q1008
RJOR 150900Z 04008KT 9999 FEW020 26/23 Q1007
RJOR 150800Z 04008KT 9999 FEW020 26/23 Q1007
RJOR 150700Z 03008KT 9999 FEW020 28/24 Q1007
RJOR 150600Z 02009KT 9999 FEW020 28/22 Q1007
RJOR 150500Z 01009KT 9999 FEW020 28/22 Q1008
RJOR 150400Z 36008KT 9999 FEW020 29/24 Q1008
RJOR 150300Z 35007KT 9999 FEW020 28/24 Q1009
RJOR 150200Z 34007KT 9999 FEW030 28/23 Q1009
RJOR 150100Z 34005KT 9999 FEW040 28/22 Q1009
RJOR 150000Z 17003KT 120V220 9999 FEW035 SCT080 26/21 Q1010
RJOR 142300Z 14004KT 9999 FEW040 SCT060 BKN080 24/21 Q1010
RJOR 142200Z 13005KT 9999 FEW050 BKN060 23/20 Q1009
RJOR 142130Z 14005KT 9999 FEW050 BKN070 22/20 Q1009